Terminal Aerodrome Forecast
Issued by NWS

Home | Current Version | Previous Version | Text Only | Print | Product List | Glossary On
Versions: 1 2 3 4 5 6 7 8 9 10 11 12 13
949
FTPA31 PHFO 241136
TAFHNY
TAF
PHNY 241136Z 2412/2512 04006KT P6SM FEW015 SCT035
     FM242000 25008KT P6SM SCT025 BKN035
     FM242200 05012KT P6SM SCT025 BKN045
     FM250500 05008KT P6SM SCT025 SCT045=

USA.gov is the U.S. government's official web portal to all federal, state and local government web resources and services.